Time;durP1;ratioP1;P1;durP2;ratioP2;P2;SDS_P1;SDS_P2;PMS_P1;PMS_P2;Temp;Humidity;BMP_temperature;BMP_pressure;BME280_temperature;BME280_humidity;BME280_pressure;Samples;Min_cycle;Max_cycle;Signal;HPM_P1;HPM_P2
2022/12/07 00:02:07;;;;;;;20.13;12.00;;;;;;;;;;5113798;28;20450;-71
2022/12/07 00:04:35;;;;;;;22.57;12.37;;;;;;;;;;5113363;28;20458;-70
2022/12/07 00:07:02;;;;;;;17.43;11.60;;;;;;;;;;5113863;28;20484;-71
2022/12/07 00:09:31;;;;;;;19.83;12.67;;;;;;;;;;5113885;28;20970;-71
2022/12/07 00:11:58;;;;;;;25.97;12.87;;;;;;;;;;5113808;28;20855;-71
2022/12/07 00:14:25;;;;;;;19.53;11.83;;;;;;;;;;5113014;28;20496;-70
2022/12/07 00:16:52;;;;;;;21.00;12.77;;;;;;;;;;5113220;28;20497;-71
2022/12/07 00:19:20;;;;;;;23.27;13.20;;;;;;;;;;5113683;28;20464;-71
2022/12/07 00:21:47;;;;;;;21.17;13.10;;;;;;;;;;5113547;28;20442;-71
2022/12/07 00:24:15;;;;;;;18.77;12.40;;;;;;;;;;5112975;28;20488;-71
2022/12/07 00:26:45;;;;;;;20.33;11.97;;;;;;;;;;5113318;28;20474;-71
2022/12/07 00:29:14;;;;;;;28.73;12.83;;;;;;;;;;5111242;28;20536;-71
2022/12/07 00:31:41;;;;;;;22.73;13.10;;;;;;;;;;5113329;28;20856;-71
2022/12/07 00:34:09;;;;;;;20.23;12.60;;;;;;;;;;5113045;28;20546;-72
2022/12/07 00:36:36;;;;;;;16.50;10.80;;;;;;;;;;5113116;28;20798;-71
2022/12/07 00:39:04;;;;;;;21.50;12.10;;;;;;;;;;5113461;28;20449;-71
2022/12/07 00:41:31;;;;;;;21.40;13.60;;;;;;;;;;5113284;28;20456;-70
2022/12/07 00:44:00;;;;;;;22.03;12.00;;;;;;;;;;5112564;28;20472;-71
2022/12/07 00:46:27;;;;;;;22.07;12.00;;;;;;;;;;5113097;28;20456;-71
2022/12/07 00:48:55;;;;;;;15.57;9.77;;;;;;;;;;5112993;28;20450;-71
2022/12/07 00:51:23;;;;;;;27.03;13.47;;;;;;;;;;5113238;28;20972;-71
2022/12/07 00:53:51;;;;;;;23.63;11.87;;;;;;;;;;5112482;28;20485;-71
2022/12/07 00:56:19;;;;;;;19.17;11.27;;;;;;;;;;5113235;28;20951;-70
2022/12/07 00:58:50;;;;;;;21.73;12.07;;;;;;;;;;5113045;28;20450;-70
2022/12/07 01:01:19;;;;;;;24.20;12.83;;;;;;;;;;5113183;28;20833;-71
2022/12/07 01:03:46;;;;;;;20.13;10.77;;;;;;;;;;5112336;28;20946;-71
2022/12/07 01:06:16;;;;;;;20.70;11.17;;;;;;;;;;5113252;28;20446;-71
2022/12/07 01:08:43;;;;;;;20.87;10.87;;;;;;;;;;5112875;28;20449;-71
2022/12/07 01:11:13;;;;;;;20.17;11.50;;;;;;;;;;5113342;28;20457;-73
2022/12/07 01:13:40;;;;;;;17.87;11.13;;;;;;;;;;5112414;28;20534;-71
2022/12/07 01:16:08;;;;;;;19.40;11.03;;;;;;;;;;5112628;28;20465;-71
2022/12/07 01:18:37;;;;;;;16.17;9.77;;;;;;;;;;5112928;28;20478;-71
2022/12/07 01:21:05;;;;;;;22.37;11.37;;;;;;;;;;5112822;28;20457;-71
2022/12/07 01:23:32;;;;;;;16.27;10.47;;;;;;;;;;5112271;28;20934;-71
2022/12/07 01:26:00;;;;;;;18.83;10.67;;;;;;;;;;5111834;28;20460;-71
2022/12/07 01:28:28;;;;;;;17.53;11.47;;;;;;;;;;5112716;28;20473;-71
2022/12/07 01:31:02;;;;;;;16.50;10.57;;;;;;;;;;5112607;28;20817;-71
2022/12/07 01:33:30;;;;;;;19.17;10.50;;;;;;;;;;5112221;28;20485;-71
2022/12/07 01:36:03;;;;;;;23.33;11.63;;;;;;;;;;5112520;28;20454;-71
2022/12/07 01:38:31;;;;;;;16.10;10.00;;;;;;;;;;5113115;28;20471;-71
2022/12/07 01:40:58;;;;;;;18.30;10.63;;;;;;;;;;5112543;28;20809;-71
2022/12/07 01:43:27;;;;;;;14.97;9.70;;;;;;;;;;5112366;28;20449;-71
2022/12/07 01:45:54;;;;;;;16.17;9.90;;;;;;;;;;5112519;28;20454;-71
2022/12/07 01:48:23;;;;;;;14.53;9.20;;;;;;;;;;5112475;28;20474;-71
2022/12/07 01:50:52;;;;;;;17.07;10.67;;;;;;;;;;5112560;28;21003;-71
2022/12/07 01:53:22;;;;;;;17.27;10.27;;;;;;;;;;5112374;28;20504;-70
2022/12/07 01:55:51;;;;;;;20.27;10.97;;;;;;;;;;5111918;28;20450;-71
2022/12/07 01:58:19;;;;;;;15.13;10.33;;;;;;;;;;5113574;28;20519;-71
2022/12/07 02:00:46;;;;;;;16.30;10.23;;;;;;;;;;5116231;28;20980;-71
2022/12/07 02:03:16;;;;;;;16.50;10.67;;;;;;;;;;5116139;28;20449;-71
2022/12/07 02:05:45;;;;;;;23.30;11.37;;;;;;;;;;5115737;28;20458;-71
2022/12/07 02:08:13;;;;;;;15.53;10.60;;;;;;;;;;5116148;28;20513;-71
2022/12/07 02:10:42;;;;;;;16.53;10.80;;;;;;;;;;5116268;28;20453;-71
2022/12/07 02:13:11;;;;;;;18.80;10.60;;;;;;;;;;5116185;28;20485;-73
2022/12/07 02:15:43;;;;;;;16.00;10.13;;;;;;;;;;5115391;28;20461;-71
2022/12/07 02:18:13;;;;;;;17.80;10.30;;;;;;;;;;5116173;28;20465;-71
2022/12/07 02:20:41;;;;;;;18.53;10.30;;;;;;;;;;5115925;28;20468;-70
2022/12/07 02:23:24;;;;;;;14.97;8.83;;;;;;;;;;5116099;28;20444;-71
2022/12/07 02:26:11;;;;;;;14.23;9.53;;;;;;;;;;5114026;28;20449;-70
2022/12/07 02:28:39;;;;;;;16.10;9.07;;;;;;;;;;5115780;28;20473;-71
2022/12/07 02:31:12;;;;;;;17.70;9.63;;;;;;;;;;5115853;28;20457;-71
2022/12/07 02:33:42;;;;;;;14.80;9.37;;;;;;;;;;5115123;28;20485;-71
2022/12/07 02:36:12;;;;;;;16.50;10.70;;;;;;;;;;5115884;28;20449;-71
2022/12/07 02:38:41;;;;;;;16.67;8.87;;;;;;;;;;5115503;28;20469;-71
2022/12/07 02:41:11;;;;;;;12.27;8.97;;;;;;;;;;5115795;28;20449;-71
2022/12/07 02:43:41;;;;;;;19.67;11.63;;;;;;;;;;5114993;28;20939;-71
2022/12/07 02:46:12;;;;;;;13.43;9.60;;;;;;;;;;5115471;28;20465;-71
2022/12/07 02:48:40;;;;;;;16.00;9.60;;;;;;;;;;5115319;28;20480;-70
2022/12/07 02:51:07;;;;;;;17.97;10.87;;;;;;;;;;5115280;28;20448;-71
2022/12/07 02:53:35;;;;;;;15.77;9.23;;;;;;;;;;5114784;28;20998;-71
2022/12/07 02:56:04;;;;;;;15.50;9.03;;;;;;;;;;5115152;28;20450;-70
2022/12/07 02:58:37;;;;;;;17.23;10.53;;;;;;;;;;5115168;28;20466;-71
2022/12/07 03:01:10;;;;;;;14.10;9.73;;;;;;;;;;5115267;28;20461;-71
2022/12/07 03:03:39;;;;;;;14.33;9.47;;;;;;;;;;5114660;28;20460;-71
2022/12/07 03:06:10;;;;;;;13.13;8.40;;;;;;;;;;5115165;28;20461;-71
2022/12/07 03:08:45;;;;;;;16.37;8.97;;;;;;;;;;5114891;28;20496;-71
2022/12/07 03:11:15;;;;;;;13.80;9.13;;;;;;;;;;5113930;28;20449;-71
2022/12/07 03:13:43;;;;;;;15.70;9.80;;;;;;;;;;5114150;28;20858;-71
2022/12/07 03:16:14;;;;;;;15.60;8.93;;;;;;;;;;5114833;28;20470;-71
2022/12/07 03:18:46;;;;;;;14.30;9.17;;;;;;;;;;5114734;28;20552;-71
2022/12/07 03:21:17;;;;;;;11.50;7.20;;;;;;;;;;5114808;28;20460;-70
2022/12/07 03:23:45;;;;;;;14.87;8.97;;;;;;;;;;5114243;28;20939;-71
2022/12/07 03:26:15;;;;;;;14.77;9.60;;;;;;;;;;5114692;28;20947;-71
2022/12/07 03:28:44;;;;;;;16.00;10.17;;;;;;;;;;5114512;28;20471;-71
2022/12/07 03:31:14;;;;;;;15.50;9.40;;;;;;;;;;5114624;28;20457;-70
2022/12/07 03:33:45;;;;;;;13.27;9.07;;;;;;;;;;5113792;28;20501;-70
2022/12/07 03:36:16;;;;;;;13.40;8.83;;;;;;;;;;5114643;28;20532;-71
2022/12/07 03:38:46;;;;;;;14.30;8.90;;;;;;;;;;5114349;28;20460;-71
2022/12/07 03:41:16;;;;;;;14.80;9.20;;;;;;;;;;5114860;28;20454;-71
2022/12/07 03:43:43;;;;;;;15.60;9.73;;;;;;;;;;5113631;28;20445;-69
2022/12/07 03:46:16;;;;;;;13.60;8.63;;;;;;;;;;5114250;28;20449;-71
2022/12/07 03:48:48;;;;;;;13.23;9.07;;;;;;;;;;5114658;28;20456;-71
2022/12/07 03:51:18;;;;;;;12.33;9.43;;;;;;;;;;5114495;28;20957;-70
2022/12/07 03:53:48;;;;;;;15.03;8.60;;;;;;;;;;5113505;28;20521;-70
2022/12/07 03:56:15;;;;;;;14.30;9.03;;;;;;;;;;5114064;28;20452;-70
2022/12/07 03:58:43;;;;;;;14.00;9.47;;;;;;;;;;5113903;28;20855;-70
2022/12/07 04:01:10;;;;;;;14.90;8.73;;;;;;;;;;5114205;28;20458;-70
2022/12/07 04:03:37;;;;;;;17.10;10.03;;;;;;;;;;5113256;28;20453;-70
2022/12/07 04:06:06;;;;;;;16.53;10.60;;;;;;;;;;5114104;28;20454;-70
2022/12/07 04:08:33;;;;;;;14.03;9.37;;;;;;;;;;5113861;28;20469;-70
2022/12/07 04:11:00;;;;;;;13.00;9.17;;;;;;;;;;5113663;28;20454;-70
2022/12/07 04:13:27;;;;;;;16.20;10.27;;;;;;;;;;5113375;28;20489;-69
2022/12/07 04:15:55;;;;;;;18.80;10.27;;;;;;;;;;5113393;28;20442;-70
2022/12/07 04:18:22;;;;;;;16.37;9.67;;;;;;;;;;5113738;28;20970;-70
2022/12/07 04:20:49;;;;;;;14.20;9.70;;;;;;;;;;5113400;28;20804;-70
2022/12/07 04:23:17;;;;;;;13.43;8.70;;;;;;;;;;5113658;28;20448;-70
2022/12/07 04:25:44;;;;;;;14.37;9.63;;;;;;;;;;5111287;28;20971;-70
2022/12/07 04:28:12;;;;;;;17.77;10.57;;;;;;;;;;5113501;28;20473;-70
2022/12/07 04:30:39;;;;;;;20.73;11.13;;;;;;;;;;5113439;28;20468;-70
2022/12/07 04:33:06;;;;;;;16.83;10.07;;;;;;;;;;5113331;28;20492;-70
2022/12/07 04:35:33;;;;;;;17.60;11.40;;;;;;;;;;5112985;28;20445;-71
2022/12/07 04:38:00;;;;;;;16.57;9.37;;;;;;;;;;5113328;28;20929;-70
2022/12/07 04:40:29;;;;;;;16.90;10.70;;;;;;;;;;5113156;28;20456;-70
2022/12/07 04:42:56;;;;;;;17.40;10.10;;;;;;;;;;5113310;28;20441;-70
2022/12/07 04:45:23;;;;;;;13.63;9.53;;;;;;;;;;5112589;28;20955;-70
2022/12/07 04:47:50;;;;;;;27.87;12.60;;;;;;;;;;5113076;28;20475;-70
2022/12/07 04:50:18;;;;;;;18.87;12.20;;;;;;;;;;5113199;28;20458;-70
2022/12/07 04:52:45;;;;;;;32.27;17.40;;;;;;;;;;5112855;28;20456;-70
2022/12/07 04:55:12;;;;;;;17.67;11.77;;;;;;;;;;5112772;28;20468;-70
2022/12/07 04:57:40;;;;;;;18.60;11.47;;;;;;;;;;5112943;28;20485;-70
2022/12/07 05:00:08;;;;;;;15.67;10.87;;;;;;;;;;5113205;28;20449;-70
2022/12/07 05:02:36;;;;;;;20.43;12.40;;;;;;;;;;5113104;28;20454;-70
2022/12/07 05:05:03;;;;;;;18.97;11.57;;;;;;;;;;5112434;28;20442;-70
2022/12/07 05:07:30;;;;;;;15.50;10.73;;;;;;;;;;5112927;28;20473;-70
2022/12/07 05:09:57;;;;;;;12.83;9.97;;;;;;;;;;5113041;28;20453;-70
2022/12/07 05:12:24;;;;;;;17.33;10.57;;;;;;;;;;5113053;28;20446;-70
2022/12/07 05:14:53;;;;;;;14.67;9.30;;;;;;;;;;5112035;28;20492;-70
2022/12/07 05:17:20;;;;;;;15.70;10.07;;;;;;;;;;5112790;28;20487;-70
2022/12/07 05:19:47;;;;;;;18.70;10.47;;;;;;;;;;5112798;28;20453;-70
2022/12/07 05:22:15;;;;;;;16.37;10.63;;;;;;;;;;5113072;28;20472;-70
2022/12/07 05:24:42;;;;;;;13.67;9.43;;;;;;;;;;5112042;28;20449;-70
2022/12/07 05:27:09;;;;;;;19.40;10.83;;;;;;;;;;5111783;28;20473;-70
2022/12/07 05:29:36;;;;;;;13.90;9.17;;;;;;;;;;5112870;28;20454;-70
2022/12/07 05:32:05;;;;;;;14.07;10.17;;;;;;;;;;5113016;28;20446;-70
2022/12/07 05:34:32;;;;;;;18.60;10.03;;;;;;;;;;5115276;28;20847;-72
2022/12/07 05:36:59;;;;;;;21.43;13.30;;;;;;;;;;5116718;28;20488;-70
2022/12/07 05:39:26;;;;;;;19.17;12.87;;;;;;;;;;5116930;28;20467;-70
2022/12/07 05:44:38;;;;;;;16.80;11.10;;;;;;;;;;5116047;28;20516;-70
2022/12/07 05:47:07;;;;;;;14.33;8.07;;;;;;;;;;5116522;27;20475;-69
2022/12/07 05:49:34;;;;;;;17.03;11.57;;;;;;;;;;5116645;28;20485;-70
2022/12/07 05:52:01;;;;;;;18.20;9.80;;;;;;;;;;5116761;28;20449;-70
2022/12/07 05:54:28;;;;;;;18.80;12.27;;;;;;;;;;5115766;28;20493;-69
2022/12/07 05:56:56;;;;;;;13.43;8.97;;;;;;;;;;5116286;28;20465;-70
2022/12/07 05:59:22;;;;;;;15.50;10.30;;;;;;;;;;5116545;28;20449;-69
2022/12/07 06:01:49;;;;;;;16.33;10.40;;;;;;;;;;5116523;28;20464;-72
2022/12/07 06:04:18;;;;;;;18.10;10.40;;;;;;;;;;5115804;28;20438;-70
2022/12/07 06:06:45;;;;;;;21.63;11.73;;;;;;;;;;5105941;28;20488;-70
2022/12/07 06:09:12;;;;;;;22.07;12.20;;;;;;;;;;5095891;28;20450;-70
2022/12/07 06:14:24;;;;;;;18.30;12.40;;;;;;;;;;5095371;28;20481;-70
2022/12/07 06:16:52;;;;;;;17.23;11.70;;;;;;;;;;5095619;28;21053;-69
2022/12/07 06:19:20;;;;;;;17.27;11.63;;;;;;;;;;5095724;28;20446;-69
2022/12/07 06:21:48;;;;;;;17.93;11.60;;;;;;;;;;5095653;28;20457;-72
2022/12/07 06:24:16;;;;;;;21.23;12.77;;;;;;;;;;5095034;28;20455;-71
2022/12/07 06:26:43;;;;;;;19.17;11.90;;;;;;;;;;5094632;28;20488;-72
2022/12/07 06:29:11;;;;;;;17.17;11.30;;;;;;;;;;5095621;28;20457;-70
2022/12/07 06:31:38;;;;;;;19.10;11.20;;;;;;;;;;5095417;28;20446;-69
2022/12/07 06:34:07;;;;;;;20.00;12.07;;;;;;;;;;5095040;28;20486;-70
2022/12/07 06:36:36;;;;;;;17.93;12.87;;;;;;;;;;5095476;28;20944;-69
2022/12/07 06:39:03;;;;;;;17.90;12.20;;;;;;;;;;5095191;28;20454;-69
2022/12/07 06:41:30;;;;;;;20.97;13.97;;;;;;;;;;5095372;28;20455;-71
2022/12/07 06:43:57;;;;;;;17.93;8.20;;;;;;;;;;5094404;28;20447;-71
2022/12/07 06:46:24;;;;;;;16.07;9.90;;;;;;;;;;5095082;28;20461;-69
2022/12/07 06:48:52;;;;;;;14.43;9.43;;;;;;;;;;5095178;28;20443;-72
2022/12/07 06:51:19;;;;;;;20.73;12.03;;;;;;;;;;5095063;28;20466;-72
2022/12/07 06:53:47;;;;;;;18.00;10.30;;;;;;;;;;5094316;28;20483;-72
2022/12/07 06:56:14;;;;;;;15.53;10.50;;;;;;;;;;5094917;28;20524;-72
2022/12/07 06:58:42;;;;;;;17.00;10.63;;;;;;;;;;5094653;28;20471;-71
2022/12/07 07:01:10;;;;;;;20.17;12.00;;;;;;;;;;5094823;28;20446;-72
2022/12/07 07:03:37;;;;;;;18.27;10.77;;;;;;;;;;5094390;28;20442;-69
2022/12/07 07:06:04;;;;;;;16.90;10.87;;;;;;;;;;5094653;28;20453;-69
2022/12/07 07:08:32;;;;;;;15.37;10.40;;;;;;;;;;5094633;28;20471;-72
2022/12/07 07:11:00;;;;;;;16.97;11.47;;;;;;;;;;5094857;28;20443;-70
2022/12/07 07:13:28;;;;;;;17.70;13.43;;;;;;;;;;5094108;28;20455;-68
2022/12/07 07:15:55;;;;;;;20.63;12.87;;;;;;;;;;5094504;28;20446;-70
2022/12/07 07:18:22;;;;;;;19.67;11.70;;;;;;;;;;5094702;28;20470;-72
2022/12/07 07:20:49;;;;;;;19.37;12.50;;;;;;;;;;5094401;28;20455;-68
2022/12/07 07:23:16;;;;;;;17.00;11.07;;;;;;;;;;5110234;27;20488;-69
2022/12/07 07:25:43;;;;;;;22.80;14.67;;;;;;;;;;5113590;28;20612;-69
2022/12/07 07:28:12;;;;;;;20.77;13.70;;;;;;;;;;5114545;28;20470;-69
2022/12/07 07:30:39;;;;;;;19.90;12.43;;;;;;;;;;5113386;28;20450;-72
2022/12/07 07:33:07;;;;;;;19.13;10.97;;;;;;;;;;5114687;28;20452;-69
2022/12/07 07:35:35;;;;;;;28.07;13.17;;;;;;;;;;5113947;28;20859;-69
2022/12/07 07:38:02;;;;;;;18.20;11.60;;;;;;;;;;5114559;28;21000;-69
2022/12/07 07:40:30;;;;;;;17.40;10.73;;;;;;;;;;5114511;28;20506;-72
2022/12/07 07:42:57;;;;;;;18.20;11.67;;;;;;;;;;5114371;28;20454;-72
2022/12/07 07:45:27;;;;;;;15.43;10.00;;;;;;;;;;5113922;28;20453;-69
2022/12/07 07:47:54;;;;;;;14.90;9.63;;;;;;;;;;5114175;28;20838;-69
2022/12/07 07:50:22;;;;;;;16.87;10.97;;;;;;;;;;5114630;28;20445;-72
2022/12/07 07:52:49;;;;;;;16.53;11.03;;;;;;;;;;5114198;28;20450;-69
2022/12/07 07:55:16;;;;;;;19.17;12.60;;;;;;;;;;5113443;28;20511;-69
2022/12/07 07:57:43;;;;;;;17.83;11.00;;;;;;;;;;5087308;28;20505;-69
2022/12/07 08:00:11;;;;;;;15.43;10.33;;;;;;;;;;5092533;28;21153;-69
2022/12/07 08:02:40;;;;;;;16.40;10.80;;;;;;;;;;5091095;28;20450;-71
2022/12/07 08:05:08;;;;;;;16.43;11.00;;;;;;;;;;5091481;28;20955;-69
2022/12/07 08:07:35;;;;;;;17.80;9.40;;;;;;;;;;5091983;28;20479;-72
2022/12/07 08:10:02;;;;;;;20.37;12.07;;;;;;;;;;5091406;28;20461;-69
2022/12/07 08:12:29;;;;;;;21.07;12.43;;;;;;;;;;5091966;28;20827;-71
2022/12/07 08:14:57;;;;;;;23.50;13.50;;;;;;;;;;5091531;28;20505;-69
2022/12/07 08:17:24;;;;;;;23.00;14.43;;;;;;;;;;5091896;28;20483;-69
2022/12/07 08:19:52;;;;;;;18.47;11.33;;;;;;;;;;5091424;28;20454;-68
2022/12/07 08:22:19;;;;;;;20.00;12.80;;;;;;;;;;5091510;28;20455;-72
2022/12/07 08:24:46;;;;;;;17.03;10.33;;;;;;;;;;5091409;28;20451;-69
2022/12/07 08:27:14;;;;;;;20.63;12.83;;;;;;;;;;5089062;28;20999;-69
2022/12/07 08:29:41;;;;;;;15.67;11.23;;;;;;;;;;5090044;28;20960;-69
2022/12/07 08:32:08;;;;;;;19.90;11.87;;;;;;;;;;5091757;28;20457;-69
2022/12/07 08:34:35;;;;;;;18.70;11.97;;;;;;;;;;5090620;28;20486;-69
2022/12/07 08:37:04;;;;;;;18.73;11.63;;;;;;;;;;5091775;28;20478;-69
2022/12/07 08:39:31;;;;;;;16.67;11.17;;;;;;;;;;5091800;28;20457;-69
2022/12/07 08:41:58;;;;;;;19.50;11.70;;;;;;;;;;5091241;28;20912;-69
2022/12/07 08:44:25;;;;;;;19.20;11.77;;;;;;;;;;5091268;28;20802;-69
2022/12/07 08:46:54;;;;;;;16.43;9.80;;;;;;;;;;5091251;28;20488;-69
2022/12/07 08:49:24;;;;;;;19.30;12.20;;;;;;;;;;5091102;28;20470;-69
2022/12/07 08:51:51;;;;;;;24.27;14.70;;;;;;;;;;5091285;28;20459;-69
2022/12/07 08:54:20;;;;;;;21.57;13.03;;;;;;;;;;5090943;28;21012;-69
2022/12/07 08:56:49;;;;;;;19.20;11.43;;;;;;;;;;5090552;28;20565;-69
2022/12/07 08:59:18;;;;;;;20.53;12.57;;;;;;;;;;5091504;28;20515;-69
2022/12/07 09:01:45;;;;;;;16.87;10.67;;;;;;;;;;5091228;28;20457;-69
2022/12/07 09:04:13;;;;;;;18.87;12.10;;;;;;;;;;5090185;28;20951;-69
2022/12/07 09:06:40;;;;;;;17.77;11.33;;;;;;;;;;5091290;28;20473;-69
2022/12/07 09:09:07;;;;;;;18.67;12.57;;;;;;;;;;5091345;28;20454;-69
2022/12/07 09:11:36;;;;;;;16.93;10.83;;;;;;;;;;5091005;28;20459;-69
2022/12/07 09:14:03;;;;;;;18.80;11.70;;;;;;;;;;5090319;28;20455;-69
2022/12/07 09:16:30;;;;;;;17.97;10.93;;;;;;;;;;5091056;28;20493;-70
2022/12/07 09:18:57;;;;;;;14.93;10.30;;;;;;;;;;5090844;28;20483;-69
2022/12/07 09:21:25;;;;;;;16.00;10.43;;;;;;;;;;5091303;28;20822;-69
2022/12/07 09:23:52;;;;;;;23.57;12.07;;;;;;;;;;5090531;28;20447;-69
2022/12/07 09:26:19;;;;;;;15.27;10.10;;;;;;;;;;5089353;28;20482;-69
2022/12/07 09:28:47;;;;;;;17.13;10.00;;;;;;;;;;5090738;28;20461;-69
2022/12/07 09:31:14;;;;;;;16.93;10.73;;;;;;;;;;5090926;28;20465;-69
2022/12/07 09:33:42;;;;;;;15.60;9.97;;;;;;;;;;5090304;28;20477;-69
2022/12/07 09:36:10;;;;;;;20.80;11.10;;;;;;;;;;5091472;28;20833;-69
2022/12/07 09:38:37;;;;;;;19.67;11.07;;;;;;;;;;5103382;28;20982;-69
2022/12/07 09:41:06;;;;;;;16.73;11.30;;;;;;;;;;5111088;28;20464;-69
2022/12/07 09:43:35;;;;;;;18.50;10.17;;;;;;;;;;5110943;28;20978;-69
2022/12/07 09:46:03;;;;;;;19.07;9.97;;;;;;;;;;5111148;28;20454;-69
2022/12/07 09:48:31;;;;;;;20.83;11.83;;;;;;;;;;5110817;28;20461;-72
2022/12/07 09:50:59;;;;;;;17.77;11.50;;;;;;;;;;5111183;28;20826;-69
2022/12/07 09:53:28;;;;;;;20.50;11.33;;;;;;;;;;5110723;28;20487;-69
2022/12/07 09:55:55;;;;;;;25.23;11.10;;;;;;;;;;5110582;28;21020;-69
2022/12/07 09:58:24;;;;;;;21.67;12.43;;;;;;;;;;5110748;28;20483;-69
2022/12/07 10:00:52;;;;;;;21.37;12.07;;;;;;;;;;5110928;28;20453;-72
2022/12/07 10:03:21;;;;;;;16.30;10.10;;;;;;;;;;5110612;28;20458;-71
2022/12/07 10:05:49;;;;;;;15.53;9.50;;;;;;;;;;5110668;28;20456;-71
2022/12/07 10:08:17;;;;;;;17.87;10.47;;;;;;;;;;5110983;28;20830;-72
2022/12/07 10:10:44;;;;;;;15.40;9.63;;;;;;;;;;5110515;28;20867;-71
2022/12/07 10:13:13;;;;;;;24.07;10.93;;;;;;;;;;5111132;28;20451;-71
2022/12/07 10:15:47;;;;;;;16.40;10.47;;;;;;;;;;5110356;28;20504;-71
2022/12/07 10:18:29;;;;;;;15.80;9.20;;;;;;;;;;5110646;28;20475;-69
2022/12/07 10:21:04;;;;;;;15.57;9.13;;;;;;;;;;5114195;28;20449;-69
2022/12/07 10:23:31;;;;;;;15.53;9.07;;;;;;;;;;5114281;28;20455;-71
2022/12/07 10:25:59;;;;;;;15.93;10.00;;;;;;;;;;5113281;28;20813;-71
2022/12/07 10:28:34;;;;;;;15.63;9.73;;;;;;;;;;5114320;28;20465;-71
2022/12/07 10:31:03;;;;;;;15.47;9.67;;;;;;;;;;5114380;27;20448;-71
2022/12/07 10:33:34;;;;;;;22.13;11.10;;;;;;;;;;5113637;28;20533;-71
2022/12/07 10:36:02;;;;;;;17.40;10.30;;;;;;;;;;5114756;27;20493;-71
2022/12/07 10:38:32;;;;;;;13.87;9.97;;;;;;;;;;5114409;28;20465;-70
2022/12/07 10:41:06;;;;;;;14.80;10.50;;;;;;;;;;5113936;28;20457;-70
2022/12/07 10:43:33;;;;;;;18.73;11.03;;;;;;;;;;5113900;28;20464;-70
2022/12/07 10:46:18;;;;;;;14.93;9.23;;;;;;;;;;5113975;28;20461;-70
2022/12/07 10:48:52;;;;;;;14.07;9.50;;;;;;;;;;5103367;28;20461;-70
2022/12/07 10:51:25;;;;;;;16.37;10.20;;;;;;;;;;5108015;28;20863;-70
2022/12/07 10:54:01;;;;;;;12.10;9.10;;;;;;;;;;5094208;28;20450;-70
2022/12/07 10:56:41;;;;;;;12.87;8.30;;;;;;;;;;5094364;28;21015;-70
2022/12/07 10:59:23;;;;;;;13.50;8.23;;;;;;;;;;5094497;28;20442;-69
2022/12/07 11:01:53;;;;;;;16.20;9.00;;;;;;;;;;5094696;28;20451;-70
2022/12/07 11:04:26;;;;;;;14.27;7.37;;;;;;;;;;5093939;28;20455;-69
2022/12/07 11:06:56;;;;;;;14.10;8.40;;;;;;;;;;5094286;28;20466;-69
2022/12/07 11:09:37;;;;;;;12.43;8.10;;;;;;;;;;5094737;28;20446;-70
2022/12/07 11:12:09;;;;;;;10.60;7.13;;;;;;;;;;5094578;28;20462;-70
2022/12/07 11:14:39;;;;;;;11.27;6.57;;;;;;;;;;5094176;28;20454;-70
2022/12/07 11:17:09;;;;;;;10.53;7.50;;;;;;;;;;5094395;28;20487;-70
2022/12/07 11:19:51;;;;;;;14.70;7.67;;;;;;;;;;5094803;28;20455;-70
2022/12/07 11:22:21;;;;;;;11.97;7.93;;;;;;;;;;5094557;28;20507;-70
2022/12/07 11:24:51;;;;;;;11.60;8.23;;;;;;;;;;5093726;28;20459;-72
2022/12/07 11:27:23;;;;;;;12.43;8.43;;;;;;;;;;5093910;28;20467;-70
2022/12/07 11:30:01;;;;;;;16.90;9.30;;;;;;;;;;5090914;28;20481;-70
2022/12/07 11:32:37;;;;;;;11.63;8.33;;;;;;;;;;5107965;28;20449;-70
2022/12/07 11:35:09;;;;;;;12.70;8.63;;;;;;;;;;5112764;28;20982;-70
2022/12/07 11:37:37;;;;;;;11.20;6.83;;;;;;;;;;5113148;28;20470;-70
2022/12/07 11:40:06;;;;;;;11.13;6.40;;;;;;;;;;5112887;28;20506;-70
2022/12/07 11:42:38;;;;;;;9.87;6.23;;;;;;;;;;5113388;28;20458;-70
2022/12/07 11:45:14;;;;;;;11.47;7.20;;;;;;;;;;5097108;28;20451;-70
2022/12/07 11:47:45;;;;;;;8.77;6.00;;;;;;;;;;5092298;28;20547;-70
2022/12/07 11:50:22;;;;;;;8.30;6.00;;;;;;;;;;5092393;28;20457;-70
2022/12/07 11:52:52;;;;;;;7.97;6.20;;;;;;;;;;5091731;28;20450;-70
2022/12/07 11:55:22;;;;;;;10.50;7.83;;;;;;;;;;5092074;28;20505;-70
2022/12/07 11:57:53;;;;;;;12.70;7.17;;;;;;;;;;5092125;28;20493;-69
2022/12/07 12:00:21;;;;;;;8.23;5.40;;;;;;;;;;5092208;28;20451;-69
2022/12/07 12:02:52;;;;;;;11.07;7.33;;;;;;;;;;5092043;28;20451;-69
2022/12/07 12:05:23;;;;;;;9.53;6.70;;;;;;;;;;5092115;28;20454;-69
2022/12/07 12:07:53;;;;;;;8.93;6.20;;;;;;;;;;5091669;28;20466;-69
2022/12/07 12:10:22;;;;;;;11.80;6.93;;;;;;;;;;5092281;28;20459;-69
2022/12/07 12:12:57;;;;;;;12.40;6.13;;;;;;;;;;5092283;28;20979;-69
2022/12/07 12:15:29;;;;;;;8.03;4.73;;;;;;;;;;5091163;28;20486;-69
2022/12/07 12:18:15;;;;;;;8.50;5.83;;;;;;;;;;5091959;28;20503;-69
2022/12/07 12:20:46;;;;;;;10.33;5.70;;;;;;;;;;5091867;28;20458;-69
2022/12/07 12:23:14;;;;;;;7.53;5.17;;;;;;;;;;5091781;28;20833;-69
2022/12/07 12:25:43;;;;;;;13.00;5.93;;;;;;;;;;5090730;28;20798;-69
2022/12/07 12:28:20;;;;;;;8.70;5.97;;;;;;;;;;5091930;28;20471;-69
2022/12/07 12:31:05;;;;;;;8.90;5.50;;;;;;;;;;5091484;28;20472;-69
2022/12/07 12:33:33;;;;;;;9.57;6.10;;;;;;;;;;5091318;28;20460;-69
2022/12/07 12:36:15;;;;;;;9.23;6.00;;;;;;;;;;5091596;28;20486;-69
2022/12/07 12:38:51;;;;;;;6.60;5.13;;;;;;;;;;5090913;28;20995;-69
2022/12/07 12:41:33;;;;;;;8.87;5.77;;;;;;;;;;5091495;28;20460;-69
2022/12/07 12:44:00;;;;;;;8.40;5.80;;;;;;;;;;5078344;28;20469;-69
2022/12/07 12:46:49;;;;;;;11.30;5.40;;;;;;;;;;5091180;28;20932;-69
2022/12/07 12:49:32;;;;;;;8.50;6.03;;;;;;;;;;5091668;28;21013;-69
2022/12/07 12:52:00;;;;;;;7.53;5.80;;;;;;;;;;5090898;28;20809;-69
2022/12/07 12:54:29;;;;;;;9.03;6.10;;;;;;;;;;5091768;28;20446;-69
2022/12/07 12:56:59;;;;;;;10.53;6.50;;;;;;;;;;5092521;28;20493;-69
2022/12/07 12:59:29;;;;;;;9.70;6.80;;;;;;;;;;5092298;28;20454;-69
2022/12/07 13:01:58;;;;;;;9.43;6.43;;;;;;;;;;5092700;28;20450;-69
2022/12/07 13:04:40;;;;;;;10.27;6.53;;;;;;;;;;5092133;28;20466;-69
2022/12/07 13:07:12;;;;;;;10.77;6.27;;;;;;;;;;5092864;28;20462;-70
2022/12/07 13:09:44;;;;;;;13.07;6.70;;;;;;;;;;5092460;28;20455;-70
2022/12/07 13:12:14;;;;;;;10.67;7.17;;;;;;;;;;5092712;28;20446;-70
2022/12/07 13:14:52;;;;;;;11.23;7.70;;;;;;;;;;5098147;28;20477;-69
2022/12/07 13:17:34;;;;;;;8.70;6.57;;;;;;;;;;5096059;28;20494;-70
2022/12/07 13:20:02;;;;;;;10.57;7.57;;;;;;;;;;5092015;28;20454;-70
2022/12/07 13:22:40;;;;;;;14.23;8.43;;;;;;;;;;5092393;28;20454;-70
2022/12/07 13:25:10;;;;;;;12.87;8.30;;;;;;;;;;5091708;28;20450;-70
2022/12/07 13:27:38;;;;;;;11.17;7.80;;;;;;;;;;5091350;28;20462;-70
2022/12/07 13:30:15;;;;;;;15.20;9.70;;;;;;;;;;5092146;28;20446;-70
2022/12/07 13:32:42;;;;;;;15.00;8.93;;;;;;;;;;5092194;28;20445;-69
2022/12/07 13:35:24;;;;;;;24.50;9.13;;;;;;;;;;5091782;28;20825;-70
2022/12/07 13:37:52;;;;;;;11.87;6.93;;;;;;;;;;5091702;28;20979;-69
2022/12/07 13:40:21;;;;;;;12.13;9.17;;;;;;;;;;5083165;28;20455;-69
2022/12/07 13:42:48;;;;;;;13.90;7.77;;;;;;;;;;5089444;28;20682;-70
2022/12/07 13:45:22;;;;;;;11.77;7.80;;;;;;;;;;5089681;28;20446;-70
2022/12/07 13:47:51;;;;;;;15.63;7.03;;;;;;;;;;5089925;28;21015;-70
2022/12/07 13:50:25;;;;;;;12.20;7.80;;;;;;;;;;5090661;28;20454;-70
2022/12/07 13:52:52;;;;;;;13.90;8.10;;;;;;;;;;5090508;28;20454;-70
2022/12/07 13:55:20;;;;;;;12.03;7.70;;;;;;;;;;5091923;28;20468;-70
2022/12/07 13:57:50;;;;;;;11.43;7.40;;;;;;;;;;5094374;28;20466;-70
2022/12/07 14:00:18;;;;;;;15.93;9.00;;;;;;;;;;5094505;28;20454;-70
2022/12/07 14:02:59;;;;;;;13.60;7.77;;;;;;;;;;5093781;28;20450;-70
2022/12/07 14:05:27;;;;;;;12.60;7.80;;;;;;;;;;5093813;28;20450;-70
2022/12/07 14:07:56;;;;;;;13.23;8.00;;;;;;;;;;5094026;28;20473;-70
2022/12/07 14:10:26;;;;;;;14.07;8.43;;;;;;;;;;5093805;28;20454;-70
2022/12/07 14:12:53;;;;;;;11.30;7.30;;;;;;;;;;5093543;28;20998;-70
2022/12/07 14:15:22;;;;;;;12.33;7.57;;;;;;;;;;5104861;28;20446;-70
2022/12/07 14:17:53;;;;;;;16.67;9.50;;;;;;;;;;5113607;27;20969;-69
2022/12/07 14:20:41;;;;;;;15.80;8.27;;;;;;;;;;5114325;28;20451;-69
2022/12/07 14:23:23;;;;;;;12.90;7.50;;;;;;;;;;5109669;28;20950;-70
2022/12/07 14:25:53;;;;;;;14.73;8.10;;;;;;;;;;5113421;27;20654;-70
2022/12/07 14:28:27;;;;;;;15.57;8.70;;;;;;;;;;5114302;28;20476;-70
2022/12/07 14:30:54;;;;;;;15.07;8.67;;;;;;;;;;5113588;28;20453;-69
2022/12/07 14:33:22;;;;;;;12.60;9.20;;;;;;;;;;5113109;27;20446;-68
2022/12/07 14:35:50;;;;;;;12.77;8.77;;;;;;;;;;5113639;28;20537;-70
2022/12/07 14:38:18;;;;;;;15.67;9.00;;;;;;;;;;5113575;27;20470;-69
2022/12/07 14:40:46;;;;;;;12.77;7.70;;;;;;;;;;5111755;28;20509;-70
2022/12/07 14:43:16;;;;;;;11.77;7.90;;;;;;;;;;5114202;27;20575;-69